map of CED home
CED - Airport
Location
City:  Ceduna, South Australia, Australia
ICAO:YCDU
IATA:CED

Details
Type:Airport (Aerodrome, Airfield)
Latitude:3207'50"S (-32.130555)
Longitude:13342'35"E (133.709722)
Datum:WGS 1984
Elevation:77 ft (23 m)
Variation:5.45E (WMM2015 magnetic declination)
-0.03 annual change
Runways:2
Longest:5709 × 98 ft (1740 × 30 m), paved

Time
Time Zone:UTC+9:30 (DST+10:30)
Local Time:

Weather
METAR:YCDU 161200Z AUTO 15012KT 9999 // NCD 17/13 Q1022

Related Locations
Nearby:
Farthest:FLW: 11452 mi / 18430 km
Flores Island [Santa Cruz], 20, PT

Find:

   beyond  
but within

Other Information
Maps:
NOTAMs:
Links:
Sources:

  
  • flag of Australia
  • flag of South Australia
  

Sectional Chart

Flight Planning
at skyvector.com

Satellite Image

Google Maps Satellite view

 

Copyright © 2004-2018 Karl L. Swartz. All rights reserved.
The Great Circle Mapper name and logo are trademarks of the Great Circle Mapper.
All other trademarks mentioned herein belong to their respective owners.
Please see credits for attibutions and further copyright information.

  Follow gcmap on Facebook Follow gcmap on Twitter Follow gcmap on Google+ GCmap on LinkedIn

hCard Microformat

Geo Microformat